sensor_id;sensor_type;location;lat;lon;timestamp;P1;durP1;ratioP1;P2;durP2;ratioP2
64816;SDS011;53289;45.602;11.904;2023-03-17T00:01:43;3.92;;;2.72;;
64816;SDS011;53289;45.602;11.904;2023-03-17T00:04:12;4.47;;;2.50;;
64816;SDS011;53289;45.602;11.904;2023-03-17T00:06:38;3.92;;;2.53;;
64816;SDS011;53289;45.602;11.904;2023-03-17T00:09:11;4.72;;;2.65;;
64816;SDS011;53289;45.602;11.904;2023-03-17T00:11:39;4.95;;;2.90;;
64816;SDS011;53289;45.602;11.904;2023-03-17T00:14:05;4.05;;;2.67;;
64816;SDS011;53289;45.602;11.904;2023-03-17T00:16:35;3.50;;;2.70;;
64816;SDS011;53289;45.602;11.904;2023-03-17T00:19:03;3.78;;;2.42;;
64816;SDS011;53289;45.602;11.904;2023-03-17T00:21:31;4.25;;;2.50;;
64816;SDS011;53289;45.602;11.904;2023-03-17T00:23:59;4.63;;;2.70;;
64816;SDS011;53289;45.602;11.904;2023-03-17T00:26:26;3.80;;;2.90;;
64816;SDS011;53289;45.602;11.904;2023-03-17T00:28:52;3.70;;;2.80;;
64816;SDS011;53289;45.602;11.904;2023-03-17T00:31:20;3.30;;;2.60;;
64816;SDS011;53289;45.602;11.904;2023-03-17T00:33:48;4.55;;;2.90;;
64816;SDS011;53289;45.602;11.904;2023-03-17T00:36:20;3.70;;;2.80;;
64816;SDS011;53289;45.602;11.904;2023-03-17T00:38:52;3.35;;;2.70;;
64816;SDS011;53289;45.602;11.904;2023-03-17T00:41:18;3.55;;;2.75;;
64816;SDS011;53289;45.602;11.904;2023-03-17T00:43:44;3.70;;;2.78;;
64816;SDS011;53289;45.602;11.904;2023-03-17T00:46:14;3.17;;;2.58;;
64816;SDS011;53289;45.602;11.904;2023-03-17T00:48:43;3.00;;;2.55;;
64816;SDS011;53289;45.602;11.904;2023-03-17T00:51:10;3.88;;;2.90;;
64816;SDS011;53289;45.602;11.904;2023-03-17T00:53:37;3.35;;;3.00;;
64816;SDS011;53289;45.602;11.904;2023-03-17T00:56:04;4.82;;;2.92;;
64816;SDS011;53289;45.602;11.904;2023-03-17T00:58:42;3.08;;;2.70;;
64816;SDS011;53289;45.602;11.904;2023-03-17T01:01:09;4.20;;;2.80;;
64816;SDS011;53289;45.602;11.904;2023-03-17T01:03:35;2.85;;;2.40;;
64816;SDS011;53289;45.602;11.904;2023-03-17T01:06:02;3.35;;;2.63;;
64816;SDS011;53289;45.602;11.904;2023-03-17T01:08:28;3.95;;;2.80;;
64816;SDS011;53289;45.602;11.904;2023-03-17T01:10:56;5.55;;;3.20;;
64816;SDS011;53289;45.602;11.904;2023-03-17T01:13:22;3.97;;;2.85;;
64816;SDS011;53289;45.602;11.904;2023-03-17T01:15:49;5.25;;;2.95;;
64816;SDS011;53289;45.602;11.904;2023-03-17T01:18:17;5.63;;;2.95;;
64816;SDS011;53289;45.602;11.904;2023-03-17T01:20:45;3.85;;;2.78;;
64816;SDS011;53289;45.602;11.904;2023-03-17T01:23:11;4.07;;;2.90;;
64816;SDS011;53289;45.602;11.904;2023-03-17T01:25:39;3.90;;;3.05;;
64816;SDS011;53289;45.602;11.904;2023-03-17T01:28:08;3.10;;;2.70;;
64816;SDS011;53289;45.602;11.904;2023-03-17T01:30:38;3.30;;;2.65;;
64816;SDS011;53289;45.602;11.904;2023-03-17T01:33:05;4.20;;;2.90;;
64816;SDS011;53289;45.602;11.904;2023-03-17T01:35:32;3.40;;;2.90;;
64816;SDS011;53289;45.602;11.904;2023-03-17T01:38:00;4.20;;;3.05;;
64816;SDS011;53289;45.602;11.904;2023-03-17T01:40:27;3.08;;;2.60;;
64816;SDS011;53289;45.602;11.904;2023-03-17T01:54:14;4.63;;;3.20;;
64816;SDS011;53289;45.602;11.904;2023-03-17T01:56:45;3.97;;;3.17;;
64816;SDS011;53289;45.602;11.904;2023-03-17T01:59:16;3.95;;;2.83;;
64816;SDS011;53289;45.602;11.904;2023-03-17T02:01:48;3.83;;;2.88;;
64816;SDS011;53289;45.602;11.904;2023-03-17T02:04:17;3.38;;;2.55;;
64816;SDS011;53289;45.602;11.904;2023-03-17T02:06:43;4.95;;;3.33;;
64816;SDS011;53289;45.602;11.904;2023-03-17T02:09:11;4.03;;;3.00;;
64816;SDS011;53289;45.602;11.904;2023-03-17T02:11:37;5.25;;;3.20;;
64816;SDS011;53289;45.602;11.904;2023-03-17T02:14:04;4.50;;;3.10;;
64816;SDS011;53289;45.602;11.904;2023-03-17T02:16:30;4.47;;;3.05;;
64816;SDS011;53289;45.602;11.904;2023-03-17T02:18:57;6.55;;;3.30;;
64816;SDS011;53289;45.602;11.904;2023-03-17T02:21:30;3.33;;;2.88;;
64816;SDS011;53289;45.602;11.904;2023-03-17T02:24:49;4.05;;;2.78;;
64816;SDS011;53289;45.602;11.904;2023-03-17T02:27:09;3.65;;;2.95;;
64816;SDS011;53289;45.602;11.904;2023-03-17T02:29:57;3.97;;;3.00;;
64816;SDS011;53289;45.602;11.904;2023-03-17T02:32:24;3.47;;;3.10;;
64816;SDS011;53289;45.602;11.904;2023-03-17T02:34:49;3.40;;;3.10;;
64816;SDS011;53289;45.602;11.904;2023-03-17T02:37:16;4.43;;;3.17;;
64816;SDS011;53289;45.602;11.904;2023-03-17T02:39:43;4.32;;;3.00;;
64816;SDS011;53289;45.602;11.904;2023-03-17T02:42:09;5.25;;;3.40;;
64816;SDS011;53289;45.602;11.904;2023-03-17T02:44:36;4.53;;;3.30;;
64816;SDS011;53289;45.602;11.904;2023-03-17T02:47:03;3.28;;;2.95;;
64816;SDS011;53289;45.602;11.904;2023-03-17T02:49:30;3.85;;;3.08;;
64816;SDS011;53289;45.602;11.904;2023-03-17T02:51:57;4.53;;;2.97;;
64816;SDS011;53289;45.602;11.904;2023-03-17T02:54:23;3.92;;;2.97;;
64816;SDS011;53289;45.602;11.904;2023-03-17T02:56:49;4.30;;;3.03;;
64816;SDS011;53289;45.602;11.904;2023-03-17T02:59:15;4.00;;;3.08;;
64816;SDS011;53289;45.602;11.904;2023-03-17T03:01:41;3.92;;;3.10;;
64816;SDS011;53289;45.602;11.904;2023-03-17T03:04:07;5.05;;;3.22;;
64816;SDS011;53289;45.602;11.904;2023-03-17T03:06:34;6.18;;;3.08;;
64816;SDS011;53289;45.602;11.904;2023-03-17T03:09:01;4.30;;;3.22;;
64816;SDS011;53289;45.602;11.904;2023-03-17T03:11:28;4.13;;;2.90;;
64816;SDS011;53289;45.602;11.904;2023-03-17T03:13:53;4.93;;;3.40;;
64816;SDS011;53289;45.602;11.904;2023-03-17T03:16:20;4.57;;;3.15;;
64816;SDS011;53289;45.602;11.904;2023-03-17T03:18:46;4.10;;;3.33;;
64816;SDS011;53289;45.602;11.904;2023-03-17T03:21:12;4.60;;;3.10;;
64816;SDS011;53289;45.602;11.904;2023-03-17T03:23:38;5.13;;;2.97;;
64816;SDS011;53289;45.602;11.904;2023-03-17T03:26:04;4.97;;;3.40;;
64816;SDS011;53289;45.602;11.904;2023-03-17T03:28:30;4.78;;;3.33;;
64816;SDS011;53289;45.602;11.904;2023-03-17T03:30:55;4.03;;;2.97;;
64816;SDS011;53289;45.602;11.904;2023-03-17T03:33:21;4.10;;;3.15;;
64816;SDS011;53289;45.602;11.904;2023-03-17T03:35:47;4.65;;;3.50;;
64816;SDS011;53289;45.602;11.904;2023-03-17T03:38:13;4.88;;;3.10;;
64816;SDS011;53289;45.602;11.904;2023-03-17T03:40:39;3.55;;;2.88;;
64816;SDS011;53289;45.602;11.904;2023-03-17T03:43:05;4.82;;;3.05;;
64816;SDS011;53289;45.602;11.904;2023-03-17T03:45:31;5.07;;;3.47;;
64816;SDS011;53289;45.602;11.904;2023-03-17T03:47:57;4.07;;;2.97;;
64816;SDS011;53289;45.602;11.904;2023-03-17T03:50:23;5.25;;;3.38;;
64816;SDS011;53289;45.602;11.904;2023-03-17T03:52:49;4.63;;;3.25;;
64816;SDS011;53289;45.602;11.904;2023-03-17T03:55:15;3.38;;;2.95;;
64816;SDS011;53289;45.602;11.904;2023-03-17T03:57:41;4.97;;;3.25;;
64816;SDS011;53289;45.602;11.904;2023-03-17T04:00:08;5.00;;;3.45;;
64816;SDS011;53289;45.602;11.904;2023-03-17T04:02:35;3.78;;;3.20;;
64816;SDS011;53289;45.602;11.904;2023-03-17T04:05:01;5.82;;;3.55;;
64816;SDS011;53289;45.602;11.904;2023-03-17T04:07:27;4.85;;;3.50;;
64816;SDS011;53289;45.602;11.904;2023-03-17T04:09:54;4.60;;;3.45;;
64816;SDS011;53289;45.602;11.904;2023-03-17T04:12:24;4.13;;;3.20;;
64816;SDS011;53289;45.602;11.904;2023-03-17T04:14:50;4.63;;;3.40;;
64816;SDS011;53289;45.602;11.904;2023-03-17T04:17:16;4.70;;;3.22;;
64816;SDS011;53289;45.602;11.904;2023-03-17T04:19:42;4.55;;;3.10;;
64816;SDS011;53289;45.602;11.904;2023-03-17T04:22:08;4.45;;;3.13;;
64816;SDS011;53289;45.602;11.904;2023-03-17T04:24:36;5.00;;;3.20;;
64816;SDS011;53289;45.602;11.904;2023-03-17T04:27:02;4.30;;;3.15;;
64816;SDS011;53289;45.602;11.904;2023-03-17T04:29:28;3.95;;;2.92;;
64816;SDS011;53289;45.602;11.904;2023-03-17T04:31:56;3.83;;;2.95;;
64816;SDS011;53289;45.602;11.904;2023-03-17T04:34:22;4.85;;;3.10;;
64816;SDS011;53289;45.602;11.904;2023-03-17T04:36:48;3.83;;;3.10;;
64816;SDS011;53289;45.602;11.904;2023-03-17T04:39:14;4.65;;;3.38;;
64816;SDS011;53289;45.602;11.904;2023-03-17T04:41:40;4.45;;;3.45;;
64816;SDS011;53289;45.602;11.904;2023-03-17T04:44:06;5.00;;;3.17;;
64816;SDS011;53289;45.602;11.904;2023-03-17T04:46:33;4.18;;;3.00;;
64816;SDS011;53289;45.602;11.904;2023-03-17T04:48:59;4.38;;;3.45;;
64816;SDS011;53289;45.602;11.904;2023-03-17T04:51:25;4.63;;;3.15;;
64816;SDS011;53289;45.602;11.904;2023-03-17T04:53:51;4.50;;;3.15;;
64816;SDS011;53289;45.602;11.904;2023-03-17T04:56:17;5.28;;;3.42;;
64816;SDS011;53289;45.602;11.904;2023-03-17T04:58:43;4.85;;;3.33;;
64816;SDS011;53289;45.602;11.904;2023-03-17T05:01:10;4.65;;;3.38;;
64816;SDS011;53289;45.602;11.904;2023-03-17T05:03:35;4.55;;;3.10;;
64816;SDS011;53289;45.602;11.904;2023-03-17T05:06:02;6.05;;;3.63;;
64816;SDS011;53289;45.602;11.904;2023-03-17T05:08:29;4.82;;;3.28;;
64816;SDS011;53289;45.602;11.904;2023-03-17T05:10:55;4.85;;;3.35;;
64816;SDS011;53289;45.602;11.904;2023-03-17T05:13:23;4.35;;;3.40;;
64816;SDS011;53289;45.602;11.904;2023-03-17T05:15:50;4.60;;;3.40;;
64816;SDS011;53289;45.602;11.904;2023-03-17T05:18:18;3.88;;;3.20;;
64816;SDS011;53289;45.602;11.904;2023-03-17T05:20:46;4.72;;;3.22;;
64816;SDS011;53289;45.602;11.904;2023-03-17T05:23:12;3.80;;;3.10;;
64816;SDS011;53289;45.602;11.904;2023-03-17T05:25:38;4.55;;;3.30;;
64816;SDS011;53289;45.602;11.904;2023-03-17T05:28:06;4.28;;;3.00;;
64816;SDS011;53289;45.602;11.904;2023-03-17T05:30:33;4.68;;;3.05;;
64816;SDS011;53289;45.602;11.904;2023-03-17T05:33:02;4.97;;;3.05;;
64816;SDS011;53289;45.602;11.904;2023-03-17T05:35:28;4.22;;;2.97;;
64816;SDS011;53289;45.602;11.904;2023-03-17T05:37:54;4.22;;;3.08;;
64816;SDS011;53289;45.602;11.904;2023-03-17T05:40:20;4.15;;;2.92;;
64816;SDS011;53289;45.602;11.904;2023-03-17T05:42:48;4.53;;;3.20;;
64816;SDS011;53289;45.602;11.904;2023-03-17T05:45:15;4.13;;;3.38;;
64816;SDS011;53289;45.602;11.904;2023-03-17T05:47:42;4.13;;;2.92;;
64816;SDS011;53289;45.602;11.904;2023-03-17T05:50:09;4.47;;;3.08;;
64816;SDS011;53289;45.602;11.904;2023-03-17T05:52:36;5.38;;;3.28;;
64816;SDS011;53289;45.602;11.904;2023-03-17T05:55:03;3.42;;;3.03;;
64816;SDS011;53289;45.602;11.904;2023-03-17T05:57:30;4.30;;;3.40;;
64816;SDS011;53289;45.602;11.904;2023-03-17T05:59:56;4.18;;;3.20;;
64816;SDS011;53289;45.602;11.904;2023-03-17T06:02:22;5.03;;;3.45;;
64816;SDS011;53289;45.602;11.904;2023-03-17T06:04:48;3.70;;;3.10;;
64816;SDS011;53289;45.602;11.904;2023-03-17T06:07:14;3.95;;;3.00;;
64816;SDS011;53289;45.602;11.904;2023-03-17T06:09:39;3.88;;;3.08;;
64816;SDS011;53289;45.602;11.904;2023-03-17T06:12:05;4.28;;;3.35;;
64816;SDS011;53289;45.602;11.904;2023-03-17T06:14:32;4.18;;;3.03;;
64816;SDS011;53289;45.602;11.904;2023-03-17T06:16:58;4.70;;;3.20;;
64816;SDS011;53289;45.602;11.904;2023-03-17T06:19:24;4.60;;;3.30;;
64816;SDS011;53289;45.602;11.904;2023-03-17T06:21:50;3.70;;;3.08;;
64816;SDS011;53289;45.602;11.904;2023-03-17T06:24:16;4.30;;;3.25;;
64816;SDS011;53289;45.602;11.904;2023-03-17T06:26:41;4.07;;;3.17;;
64816;SDS011;53289;45.602;11.904;2023-03-17T06:29:08;4.38;;;3.40;;
64816;SDS011;53289;45.602;11.904;2023-03-17T06:31:34;4.20;;;3.17;;
64816;SDS011;53289;45.602;11.904;2023-03-17T06:34:01;4.97;;;3.40;;
64816;SDS011;53289;45.602;11.904;2023-03-17T06:36:28;4.38;;;3.25;;
64816;SDS011;53289;45.602;11.904;2023-03-17T06:38:56;4.20;;;3.10;;
64816;SDS011;53289;45.602;11.904;2023-03-17T06:41:23;5.03;;;3.22;;
64816;SDS011;53289;45.602;11.904;2023-03-17T06:43:50;4.88;;;3.20;;
64816;SDS011;53289;45.602;11.904;2023-03-17T06:46:16;4.40;;;3.17;;
64816;SDS011;53289;45.602;11.904;2023-03-17T06:48:42;5.72;;;3.22;;
64816;SDS011;53289;45.602;11.904;2023-03-17T06:51:08;3.90;;;2.92;;
64816;SDS011;53289;45.602;11.904;2023-03-17T06:53:35;4.28;;;2.92;;
64816;SDS011;53289;45.602;11.904;2023-03-17T06:56:01;3.90;;;3.05;;
64816;SDS011;53289;45.602;11.904;2023-03-17T06:58:29;4.38;;;3.38;;
64816;SDS011;53289;45.602;11.904;2023-03-17T07:00:56;4.15;;;2.92;;
64816;SDS011;53289;45.602;11.904;2023-03-17T07:03:23;4.20;;;2.97;;
64816;SDS011;53289;45.602;11.904;2023-03-17T07:05:50;3.90;;;3.35;;
64816;SDS011;53289;45.602;11.904;2023-03-17T07:08:16;3.55;;;3.00;;
64816;SDS011;53289;45.602;11.904;2023-03-17T07:10:42;6.38;;;3.47;;
64816;SDS011;53289;45.602;11.904;2023-03-17T07:13:09;3.85;;;3.00;;
64816;SDS011;53289;45.602;11.904;2023-03-17T07:15:36;4.13;;;3.10;;
64816;SDS011;53289;45.602;11.904;2023-03-17T07:18:03;4.57;;;3.40;;
64816;SDS011;53289;45.602;11.904;2023-03-17T07:20:30;4.35;;;3.30;;
64816;SDS011;53289;45.602;11.904;2023-03-17T07:22:56;5.03;;;3.70;;
64816;SDS011;53289;45.602;11.904;2023-03-17T07:25:22;4.65;;;3.40;;
64816;SDS011;53289;45.602;11.904;2023-03-17T07:27:49;4.47;;;3.22;;
64816;SDS011;53289;45.602;11.904;2023-03-17T07:30:16;3.97;;;3.00;;
64816;SDS011;53289;45.602;11.904;2023-03-17T07:32:45;5.32;;;3.30;;
64816;SDS011;53289;45.602;11.904;2023-03-17T07:35:11;4.18;;;3.20;;
64816;SDS011;53289;45.602;11.904;2023-03-17T07:37:37;5.20;;;3.42;;
64816;SDS011;53289;45.602;11.904;2023-03-17T07:40:03;5.20;;;3.45;;
64816;SDS011;53289;45.602;11.904;2023-03-17T07:42:30;4.40;;;3.58;;
64816;SDS011;53289;45.602;11.904;2023-03-17T07:44:56;4.70;;;3.20;;
64816;SDS011;53289;45.602;11.904;2023-03-17T07:47:22;4.05;;;3.20;;
64816;SDS011;53289;45.602;11.904;2023-03-17T07:49:48;4.25;;;3.33;;
64816;SDS011;53289;45.602;11.904;2023-03-17T07:52:14;4.72;;;3.17;;
64816;SDS011;53289;45.602;11.904;2023-03-17T07:54:40;4.82;;;3.50;;
64816;SDS011;53289;45.602;11.904;2023-03-17T07:57:06;5.45;;;3.22;;
64816;SDS011;53289;45.602;11.904;2023-03-17T07:59:32;4.47;;;3.13;;
64816;SDS011;53289;45.602;11.904;2023-03-17T08:01:58;5.32;;;3.03;;
64816;SDS011;53289;45.602;11.904;2023-03-17T08:04:25;4.00;;;2.83;;
64816;SDS011;53289;45.602;11.904;2023-03-17T08:06:52;4.40;;;2.45;;
64816;SDS011;53289;45.602;11.904;2023-03-17T08:09:18;4.97;;;2.58;;
64816;SDS011;53289;45.602;11.904;2023-03-17T08:11:46;2.97;;;2.45;;
64816;SDS011;53289;45.602;11.904;2023-03-17T08:14:12;3.97;;;2.58;;
64816;SDS011;53289;45.602;11.904;2023-03-17T08:16:38;3.67;;;2.85;;
64816;SDS011;53289;45.602;11.904;2023-03-17T08:19:04;6.03;;;2.70;;
64816;SDS011;53289;45.602;11.904;2023-03-17T08:21:31;4.10;;;2.85;;
64816;SDS011;53289;45.602;11.904;2023-03-17T08:23:56;3.75;;;2.90;;
64816;SDS011;53289;45.602;11.904;2023-03-17T08:26:22;2.90;;;2.53;;
64816;SDS011;53289;45.602;11.904;2023-03-17T08:28:48;4.30;;;2.65;;
64816;SDS011;53289;45.602;11.904;2023-03-17T08:31:19;3.55;;;2.78;;
64816;SDS011;53289;45.602;11.904;2023-03-17T08:33:46;3.25;;;2.58;;
64816;SDS011;53289;45.602;11.904;2023-03-17T08:36:14;3.38;;;2.75;;
64816;SDS011;53289;45.602;11.904;2023-03-17T08:38:42;4.13;;;2.90;;
64816;SDS011;53289;45.602;11.904;2023-03-17T08:41:10;4.22;;;2.67;;
64816;SDS011;53289;45.602;11.904;2023-03-17T08:43:38;3.22;;;2.50;;
64816;SDS011;53289;45.602;11.904;2023-03-17T08:46:07;5.82;;;2.55;;
64816;SDS011;53289;45.602;11.904;2023-03-17T08:48:34;3.85;;;2.70;;
64816;SDS011;53289;45.602;11.904;2023-03-17T08:51:01;3.60;;;2.67;;
64816;SDS011;53289;45.602;11.904;2023-03-17T08:53:29;3.60;;;2.42;;
64816;SDS011;53289;45.602;11.904;2023-03-17T08:55:56;4.05;;;2.83;;
64816;SDS011;53289;45.602;11.904;2023-03-17T08:58:23;4.05;;;2.92;;
64816;SDS011;53289;45.602;11.904;2023-03-17T09:00:49;3.20;;;2.70;;
64816;SDS011;53289;45.602;11.904;2023-03-17T09:03:17;2.97;;;2.60;;
64816;SDS011;53289;45.602;11.904;2023-03-17T09:05:43;4.88;;;2.80;;
64816;SDS011;53289;45.602;11.904;2023-03-17T09:08:09;3.70;;;2.65;;
64816;SDS011;53289;45.602;11.904;2023-03-17T09:10:37;4.28;;;2.85;;
64816;SDS011;53289;45.602;11.904;2023-03-17T09:13:03;6.70;;;2.85;;
64816;SDS011;53289;45.602;11.904;2023-03-17T09:15:30;3.78;;;2.95;;
64816;SDS011;53289;45.602;11.904;2023-03-17T09:17:58;4.18;;;2.60;;
64816;SDS011;53289;45.602;11.904;2023-03-17T09:20:24;3.70;;;2.75;;
64816;SDS011;53289;45.602;11.904;2023-03-17T09:22:50;4.35;;;2.88;;
64816;SDS011;53289;45.602;11.904;2023-03-17T09:25:17;5.30;;;2.92;;
64816;SDS011;53289;45.602;11.904;2023-03-17T09:27:43;4.32;;;2.58;;
64816;SDS011;53289;45.602;11.904;2023-03-17T09:30:09;3.83;;;3.08;;
64816;SDS011;53289;45.602;11.904;2023-03-17T09:32:38;4.63;;;2.95;;
64816;SDS011;53289;45.602;11.904;2023-03-17T09:35:04;5.45;;;2.72;;
64816;SDS011;53289;45.602;11.904;2023-03-17T09:37:30;8.75;;;3.28;;
64816;SDS011;53289;45.602;11.904;2023-03-17T09:39:58;5.43;;;2.78;;
64816;SDS011;53289;45.602;11.904;2023-03-17T09:42:46;3.80;;;2.67;;
64816;SDS011;53289;45.602;11.904;2023-03-17T09:50:53;4.47;;;3.00;;
64816;SDS011;53289;45.602;11.904;2023-03-17T09:53:30;4.75;;;3.03;;
64816;SDS011;53289;45.602;11.904;2023-03-17T09:56:06;4.65;;;2.90;;
64816;SDS011;53289;45.602;11.904;2023-03-17T09:58:38;4.63;;;3.20;;
64816;SDS011;53289;45.602;11.904;2023-03-17T10:01:08;6.30;;;3.00;;
64816;SDS011;53289;45.602;11.904;2023-03-17T10:03:36;4.00;;;2.58;;
64816;SDS011;53289;45.602;11.904;2023-03-17T10:06:10;3.42;;;2.53;;
64816;SDS011;53289;45.602;11.904;2023-03-17T10:09:03;6.18;;;3.08;;
64816;SDS011;53289;45.602;11.904;2023-03-17T10:11:41;4.30;;;2.65;;
64816;SDS011;53289;45.602;11.904;2023-03-17T10:19:22;3.83;;;2.53;;
64816;SDS011;53289;45.602;11.904;2023-03-17T10:21:59;5.57;;;2.70;;
64816;SDS011;53289;45.602;11.904;2023-03-17T10:24:30;7.50;;;3.00;;
64816;SDS011;53289;45.602;11.904;2023-03-17T10:26:59;4.97;;;2.60;;
64816;SDS011;53289;45.602;11.904;2023-03-17T10:29:29;4.45;;;2.78;;
64816;SDS011;53289;45.602;11.904;2023-03-17T10:31:56;5.82;;;3.03;;
64816;SDS011;53289;45.602;11.904;2023-03-17T10:34:30;5.00;;;2.88;;
64816;SDS011;53289;45.602;11.904;2023-03-17T10:37:39;4.68;;;2.90;;
64816;SDS011;53289;45.602;11.904;2023-03-17T10:39:51;7.20;;;2.75;;
64816;SDS011;53289;45.602;11.904;2023-03-17T10:49:57;4.15;;;2.55;;
64816;SDS011;53289;45.602;11.904;2023-03-17T10:52:41;4.20;;;2.60;;
64816;SDS011;53289;45.602;11.904;2023-03-17T10:55:13;3.80;;;2.90;;
64816;SDS011;53289;45.602;11.904;2023-03-17T10:58:16;3.90;;;2.40;;
64816;SDS011;53289;45.602;11.904;2023-03-17T11:00:34;3.75;;;2.45;;
64816;SDS011;53289;45.602;11.904;2023-03-17T11:03:24;3.42;;;2.60;;
64816;SDS011;53289;45.602;11.904;2023-03-17T11:05:55;4.45;;;2.70;;
64816;SDS011;53289;45.602;11.904;2023-03-17T11:09:06;3.53;;;2.40;;
64816;SDS011;53289;45.602;11.904;2023-03-17T11:11:32;3.20;;;2.35;;
64816;SDS011;53289;45.602;11.904;2023-03-17T11:16:39;3.83;;;2.60;;
64816;SDS011;53289;45.602;11.904;2023-03-17T11:19:18;5.80;;;2.53;;
64816;SDS011;53289;45.602;11.904;2023-03-17T11:24:31;3.45;;;2.13;;
64816;SDS011;53289;45.602;11.904;2023-03-17T11:32:49;4.75;;;2.55;;
64816;SDS011;53289;45.602;11.904;2023-03-17T11:38:22;3.88;;;2.17;;
64816;SDS011;53289;45.602;11.904;2023-03-17T11:44:25;3.08;;;2.22;;
64816;SDS011;53289;45.602;11.904;2023-03-17T11:47:17;4.88;;;2.83;;
64816;SDS011;53289;45.602;11.904;2023-03-17T12:02:55;3.75;;;2.30;;
64816;SDS011;53289;45.602;11.904;2023-03-17T12:05:42;3.58;;;2.03;;
64816;SDS011;53289;45.602;11.904;2023-03-17T12:10:43;4.65;;;2.42;;
64816;SDS011;53289;45.602;11.904;2023-03-17T12:16:13;5.63;;;2.47;;
64816;SDS011;53289;45.602;11.904;2023-03-17T12:21:59;4.53;;;2.38;;
64816;SDS011;53289;45.602;11.904;2023-03-17T12:27:06;2.70;;;1.90;;
64816;SDS011;53289;45.602;11.904;2023-03-17T12:29:42;3.60;;;2.00;;
64816;SDS011;53289;45.602;11.904;2023-03-17T12:32:32;5.07;;;2.20;;
64816;SDS011;53289;45.602;11.904;2023-03-17T12:37:54;4.00;;;2.13;;
64816;SDS011;53289;45.602;11.904;2023-03-17T12:40:23;2.72;;;1.88;;
64816;SDS011;53289;45.602;11.904;2023-03-17T12:54:27;2.78;;;1.95;;
64816;SDS011;53289;45.602;11.904;2023-03-17T12:57:00;2.75;;;2.10;;
64816;SDS011;53289;45.602;11.904;2023-03-17T12:59:44;3.35;;;1.98;;
64816;SDS011;53289;45.602;11.904;2023-03-17T13:04:48;2.90;;;2.05;;
64816;SDS011;53289;45.602;11.904;2023-03-17T13:07:30;2.70;;;1.85;;
64816;SDS011;53289;45.602;11.904;2023-03-17T13:10:10;2.22;;;1.58;;
64816;SDS011;53289;45.602;11.904;2023-03-17T13:17:51;2.38;;;1.50;;
64816;SDS011;53289;45.602;11.904;2023-03-17T13:20:44;3.97;;;1.60;;
64816;SDS011;53289;45.602;11.904;2023-03-17T13:26:18;2.35;;;1.42;;
64816;SDS011;53289;45.602;11.904;2023-03-17T13:28:47;2.10;;;1.60;;
64816;SDS011;53289;45.602;11.904;2023-03-17T13:31:31;2.75;;;1.48;;
64816;SDS011;53289;45.602;11.904;2023-03-17T13:34:09;2.25;;;1.73;;
64816;SDS011;53289;45.602;11.904;2023-03-17T13:39:50;3.30;;;1.70;;
64816;SDS011;53289;45.602;11.904;2023-03-17T13:47:55;2.80;;;1.77;;
64816;SDS011;53289;45.602;11.904;2023-03-17T13:56:16;1.65;;;1.55;;
64816;SDS011;53289;45.602;11.904;2023-03-17T14:01:37;1.25;;;1.15;;
64816;SDS011;53289;45.602;11.904;2023-03-17T14:04:56;2.75;;;1.58;;
64816;SDS011;53289;45.602;11.904;2023-03-17T14:07:19;3.60;;;2.10;;
64816;SDS011;53289;45.602;11.904;2023-03-17T14:09:49;1.70;;;1.40;;
64816;SDS011;53289;45.602;11.904;2023-03-17T14:12:23;1.35;;;1.25;;
64816;SDS011;53289;45.602;11.904;2023-03-17T14:17:47;3.47;;;1.33;;
64816;SDS011;53289;45.602;11.904;2023-03-17T14:22:47;1.35;;;1.23;;
64816;SDS011;53289;45.602;11.904;2023-03-17T14:25:23;1.35;;;1.15;;
64816;SDS011;53289;45.602;11.904;2023-03-17T14:27:52;1.52;;;1.25;;
64816;SDS011;53289;45.602;11.904;2023-03-17T14:30:21;1.70;;;1.23;;
64816;SDS011;53289;45.602;11.904;2023-03-17T14:32:54;2.20;;;1.55;;
64816;SDS011;53289;45.602;11.904;2023-03-17T14:35:39;1.77;;;1.30;;
64816;SDS011;53289;45.602;11.904;2023-03-17T14:38:17;1.42;;;1.27;;
64816;SDS011;53289;45.602;11.904;2023-03-17T14:41:20;1.73;;;1.40;;
64816;SDS011;53289;45.602;11.904;2023-03-17T14:43:48;2.38;;;1.50;;
64816;SDS011;53289;45.602;11.904;2023-03-17T14:46:19;2.40;;;1.42;;
64816;SDS011;53289;45.602;11.904;2023-03-17T14:48:59;1.90;;;1.17;;
64816;SDS011;53289;45.602;11.904;2023-03-17T14:51:28;2.28;;;1.35;;
64816;SDS011;53289;45.602;11.904;2023-03-17T14:54:02;2.72;;;1.83;;
64816;SDS011;53289;45.602;11.904;2023-03-17T14:56:38;2.70;;;1.50;;
64816;SDS011;53289;45.602;11.904;2023-03-17T14:59:29;2.20;;;1.27;;
64816;SDS011;53289;45.602;11.904;2023-03-17T15:01:55;1.90;;;1.33;;
64816;SDS011;53289;45.602;11.904;2023-03-17T15:04:24;1.45;;;1.30;;
64816;SDS011;53289;45.602;11.904;2023-03-17T15:07:00;2.80;;;1.75;;
64816;SDS011;53289;45.602;11.904;2023-03-17T15:09:35;2.72;;;1.63;;
64816;SDS011;53289;45.602;11.904;2023-03-17T15:12:05;1.58;;;1.45;;
64816;SDS011;53289;45.602;11.904;2023-03-17T15:14:39;1.77;;;1.30;;
64816;SDS011;53289;45.602;11.904;2023-03-17T15:17:13;1.50;;;1.40;;
64816;SDS011;53289;45.602;11.904;2023-03-17T15:19:46;2.30;;;1.42;;
64816;SDS011;53289;45.602;11.904;2023-03-17T15:27:58;2.85;;;1.40;;
64816;SDS011;53289;45.602;11.904;2023-03-17T15:30:25;1.95;;;1.30;;
64816;SDS011;53289;45.602;11.904;2023-03-17T15:32:56;3.03;;;1.83;;
64816;SDS011;53289;45.602;11.904;2023-03-17T15:35:24;1.90;;;1.50;;
64816;SDS011;53289;45.602;11.904;2023-03-17T15:37:51;1.80;;;1.30;;
64816;SDS011;53289;45.602;11.904;2023-03-17T15:40:18;1.52;;;1.42;;
64816;SDS011;53289;45.602;11.904;2023-03-17T15:42:44;2.33;;;1.83;;
64816;SDS011;53289;45.602;11.904;2023-03-17T15:45:16;1.45;;;1.35;;
64816;SDS011;53289;45.602;11.904;2023-03-17T15:47:42;1.40;;;1.30;;
64816;SDS011;53289;45.602;11.904;2023-03-17T15:52:48;2.08;;;1.73;;
64816;SDS011;53289;45.602;11.904;2023-03-17T15:55:27;1.73;;;1.63;;
64816;SDS011;53289;45.602;11.904;2023-03-17T15:57:55;2.33;;;1.70;;
64816;SDS011;53289;45.602;11.904;2023-03-17T16:00:25;1.50;;;1.25;;
64816;SDS011;53289;45.602;11.904;2023-03-17T16:02:53;3.95;;;2.63;;
64816;SDS011;53289;45.602;11.904;2023-03-17T16:05:25;2.85;;;2.10;;
64816;SDS011;53289;45.602;11.904;2023-03-17T16:11:19;3.05;;;2.28;;
64816;SDS011;53289;45.602;11.904;2023-03-17T16:13:52;1.90;;;1.58;;
64816;SDS011;53289;45.602;11.904;2023-03-17T16:16:24;1.52;;;1.42;;
64816;SDS011;53289;45.602;11.904;2023-03-17T16:19:00;1.60;;;1.40;;
64816;SDS011;53289;45.602;11.904;2023-03-17T16:21:29;1.60;;;1.40;;
64816;SDS011;53289;45.602;11.904;2023-03-17T16:23:56;2.20;;;1.70;;
64816;SDS011;53289;45.602;11.904;2023-03-17T16:26:22;3.75;;;2.00;;
64816;SDS011;53289;45.602;11.904;2023-03-17T16:28:48;2.42;;;2.00;;
64816;SDS011;53289;45.602;11.904;2023-03-17T16:31:24;3.38;;;2.22;;
64816;SDS011;53289;45.602;11.904;2023-03-17T16:33:56;2.45;;;2.20;;
64816;SDS011;53289;45.602;11.904;2023-03-17T16:36:22;2.55;;;2.00;;
64816;SDS011;53289;45.602;11.904;2023-03-17T16:38:49;3.03;;;1.50;;
64816;SDS011;53289;45.602;11.904;2023-03-17T16:41:17;3.45;;;1.60;;
64816;SDS011;53289;45.602;11.904;2023-03-17T16:43:44;1.98;;;1.55;;
64816;SDS011;53289;45.602;11.904;2023-03-17T16:46:14;2.70;;;1.45;;
64816;SDS011;53289;45.602;11.904;2023-03-17T16:48:39;1.30;;;1.20;;
64816;SDS011;53289;45.602;11.904;2023-03-17T16:51:05;2.28;;;1.45;;
64816;SDS011;53289;45.602;11.904;2023-03-17T16:53:31;1.58;;;1.30;;
64816;SDS011;53289;45.602;11.904;2023-03-17T16:55:58;2.10;;;1.40;;
64816;SDS011;53289;45.602;11.904;2023-03-17T16:58:30;2.88;;;1.30;;